Time;durP1;ratioP1;P1;durP2;ratioP2;P2;SDS_P1;SDS_P2;PMS_P1;PMS_P2;Temp;Humidity;BMP_temperature;BMP_pressure;BME280_temperature;BME280_humidity;BME280_pressure;Samples;Min_cycle;Max_cycle;Signal;HPM_P1;HPM_P2
2023/08/12 00:01:21;;;;;;;4.50;3.90;;;20.30;3.70;;;;;;6108841;23;20182;-93
2023/08/12 00:08:21;;;;;;;;;;;;;;;;;;;;;
2023/08/12 00:10:52;;;;;;;10.13;4.78;;;20.30;5.00;;;;;;6133422;23;20093;-93
2023/08/12 00:13:38;;;;;;;7.05;4.35;;;20.20;6.50;;;;;;6086633;23;20101;-93
2023/08/12 00:16:29;;;;;;;5.40;4.47;;;19.60;7.80;;;;;;6108581;23;20022;-93
2023/08/12 00:19:10;;;;;;;5.68;5.05;;;19.80;8.70;;;;;;6107424;23;20021;-93
2023/08/12 00:22:08;;;;;;;;;;;;;;;;;;;;;
2023/08/12 00:24:53;;;;;;;12.18;4.35;;;20.10;9.80;;;;;;6133236;23;20050;-93
2023/08/12 00:27:45;;;;;;;7.70;4.20;;;20.30;11.30;;;;;;6107304;23;20044;-93
2023/08/12 00:30:14;;;;;;;6.45;4.20;;;20.00;12.40;;;;;;6077175;23;20028;-93
2023/08/12 00:32:42;;;;;;;6.50;3.90;;;19.90;14.60;;;;;;6108273;23;20021;-93
2023/08/12 00:35:16;;;;;;;6.43;4.00;;;19.90;15.10;;;;;;6087551;23;20061;-93
2023/08/12 00:37:42;;;;;;;4.22;3.67;;;19.90;16.10;;;;;;6105817;23;20017;-93
2023/08/12 00:40:36;;;;;;;6.43;4.00;;;19.80;16.60;;;;;;6108780;23;20033;-93
2023/08/12 00:43:03;;;;;;;4.15;3.75;;;20.00;17.50;;;;;;6130652;23;20056;-93
2023/08/12 00:45:38;;;;;;;6.20;4.05;;;19.80;18.90;;;;;;6110646;23;20100;-93
2023/08/12 00:48:10;;;;;;;4.85;3.20;;;19.80;17.90;;;;;;6110439;23;20505;-93
2023/08/12 00:53:39;;;;;;;6.15;3.88;;;19.80;18.70;;;;;;6104626;23;20025;-93
2023/08/12 00:56:13;;;;;;;5.78;4.07;;;19.70;22.80;;;;;;6087747;23;20100;-94
2023/08/12 00:59:02;;;;;;;6.30;3.78;;;19.60;24.90;;;;;;6109267;23;20458;-93
2023/08/12 01:01:33;;;;;;;4.90;4.07;;;18.90;25.10;;;;;;6109042;23;20017;-94
2023/08/12 01:04:17;;;;;;;5.40;3.95;;;19.60;27.30;;;;;;6107090;23;20468;-93
2023/08/12 01:06:55;;;;;;;;;;;;;;;;;;;;;
2023/08/12 01:16:42;;;;;;;;;;;;;;;;;;;;;
2023/08/12 01:19:35;;;;;;;6.70;5.05;;;19.50;31.60;;;;;;6133146;23;20017;-94
2023/08/12 01:22:50;;;;;;;5.50;4.32;;;19.40;35.30;;;;;;6110185;23;20021;-94
2023/08/12 01:25:55;;;;;;;5.72;4.47;;;19.30;38.70;;;;;;6109861;23;20022;-94
2023/08/12 01:32:40;;;;;;;;;;;;;;;;;;;;;
2023/08/12 01:35:17;;;;;;;6.45;4.55;;;19.30;39.80;;;;;;6085922;23;20092;-93
2023/08/12 01:37:53;;;;;;;6.63;4.70;;;19.30;41.40;;;;;;6107933;23;20018;-93
2023/08/12 01:40:38;;;;;;;7.13;4.88;;;19.10;42.60;;;;;;6114218;23;20041;-94
2023/08/12 01:43:15;;;;;;;;;;;;;;;;;;;;;
2023/08/12 01:46:03;;;;;;;8.82;4.65;;;19.20;45.30;;;;;;6133322;23;20021;-93
2023/08/12 01:48:34;;;;;;;7.82;4.75;;;18.90;45.20;;;;;;6086076;23;20018;-92
2023/08/12 01:51:13;;;;;;;5.30;4.68;;;18.30;44.60;;;;;;6089616;23;20022;-93
2023/08/12 01:53:46;;;;;;;5.68;5.13;;;19.20;44.80;;;;;;6086733;23;20022;-94
2023/08/12 01:56:42;;;;;;;10.60;5.55;;;19.80;44.80;;;;;;6113878;23;20032;-93
2023/08/12 01:59:15;;;;;;;5.55;4.35;;;18.30;44.30;;;;;;6090002;23;20049;-94
2023/08/12 02:05:04;;;;;;;8.35;5.30;;;19.10;45.70;;;;;;6106309;23;20025;-94
2023/08/12 02:07:43;;;;;;;5.47;4.68;;;19.10;46.60;;;;;;6073310;23;20018;-94
2023/08/12 02:10:37;;;;;;;8.40;6.03;;;19.10;45.80;;;;;;6066710;23;20020;-94
2023/08/12 02:13:05;;;;;;;5.80;5.20;;;19.10;46.40;;;;;;6089333;23;20013;-93
2023/08/12 02:15:37;;;;;;;7.38;5.13;;;19.20;46.20;;;;;;6086473;23;20020;-94
2023/08/12 02:18:15;;;;;;;5.38;4.88;;;19.00;45.30;;;;;;6087818;23;20025;-94
2023/08/12 02:20:46;;;;;;;8.43;6.22;;;19.10;45.30;;;;;;6089157;23;20080;-93
2023/08/12 02:23:25;;;;;;;;;;;;;;;;;;;;;
2023/08/12 02:26:01;;;;;;;7.95;5.78;;;19.00;48.80;;;;;;6112689;23;20018;-93
2023/08/12 02:28:35;;;;;;;8.18;6.70;;;19.00;51.70;;;;;;6063586;23;20018;-92
2023/08/12 02:31:14;;;;;;;;;;;;;;;;;;;;;
2023/08/12 02:33:51;;;;;;;8.43;6.72;;;19.00;56.00;;;;;;6136217;23;20018;-93
2023/08/12 02:36:27;;;;;;;8.18;6.45;;;19.00;57.20;;;;;;6108316;23;20028;-94
2023/08/12 02:38:55;;;;;;;12.70;8.00;;;19.10;59.20;;;;;;6086973;23;20100;-93
2023/08/12 02:41:24;;;;;;;10.40;8.35;;;19.00;60.00;;;;;;6087052;23;20018;-94
2023/08/12 02:43:57;;;;;;;13.38;7.68;;;19.10;62.10;;;;;;6112308;23;20018;-93
2023/08/12 02:46:28;;;;;;;9.82;8.60;;;18.40;63.70;;;;;;6086428;23;20021;-93
2023/08/12 02:49:13;;;;;;;11.23;8.00;;;19.10;64.90;;;;;;6110521;23;20022;-94
2023/08/12 02:51:52;;;;;;;;;;;;;;;;;;;;;
2023/08/12 02:54:30;;;;;;;14.65;9.13;;;19.10;67.00;;;;;;6136670;23;20025;-94
2023/08/12 02:57:09;;;;;;;12.52;9.32;;;19.10;68.60;;;;;;6069260;23;20029;-94
2023/08/12 02:59:40;;;;;;;12.82;9.35;;;19.20;70.30;;;;;;6091013;23;20033;-93
2023/08/12 03:02:09;;;;;;;13.50;10.18;;;19.10;71.70;;;;;;6088979;23;20013;-93
2023/08/12 03:04:41;;;;;;;13.68;10.90;;;19.10;73.20;;;;;;6110254;23;20021;-94
2023/08/12 03:07:10;;;;;;;14.40;9.77;;;19.10;75.20;;;;;;6088412;23;20053;-93
2023/08/12 03:09:46;;;;;;;12.20;10.90;;;19.10;77.40;;;;;;6107205;23;20025;-93
2023/08/12 03:12:20;;;;;;;14.68;10.10;;;19.10;80.70;;;;;;6086225;23;20018;-93
2023/08/12 03:14:51;;;;;;;14.75;9.98;;;19.10;82.40;;;;;;6084874;23;20018;-94
2023/08/12 03:17:20;;;;;;;10.38;9.27;;;19.10;83.10;;;;;;6084418;23;20017;-94
2023/08/12 03:19:59;;;;;;;16.25;11.80;;;19.20;83.20;;;;;;6108289;23;20020;-94
2023/08/12 03:22:38;;;;;;;;;;;;;;;;;;;;;
2023/08/12 03:25:19;;;;;;;;;;;;;;;;;;;;;
2023/08/12 03:27:47;;;;;;;14.75;10.27;;;19.10;83.20;;;;;;6110178;23;20017;-93
2023/08/12 03:30:31;;;;;;;;;;;;;;;;;;;;;
2023/08/12 03:33:19;;;;;;;;;;;;;;;;;;;;;
2023/08/12 03:35:59;;;;;;;;;;;;;;;;;;;;;
2023/08/12 03:38:36;;;;;;;15.90;11.60;;;19.40;88.80;;;;;;6111897;23;20100;-93
2023/08/12 03:41:12;;;;;;;14.77;11.82;;;19.00;90.00;;;;;;6107516;23;20108;-93
2023/08/12 03:43:53;;;;;;;14.90;12.32;;;20.00;90.60;;;;;;6086204;23;20053;-94
2023/08/12 03:46:32;;;;;;;;;;;;;;;;;;;;;
2023/08/12 03:49:30;;;;;;;14.10;12.35;;;19.50;91.20;;;;;;6136488;23;20096;-93
2023/08/12 03:52:07;;;;;;;16.50;11.67;;;19.10;91.60;;;;;;6093317;23;20064;-93
2023/08/12 03:54:38;;;;;;;;;;;19.10;92.20;;;;;;6062899;23;20446;-94
2023/08/12 03:57:09;;;;;;;15.05;12.23;;;18.80;95.80;;;;;;6107556;23;19923;-94
2023/08/12 03:59:49;;;;;;;15.80;11.98;;;18.40;93.70;;;;;;6108776;23;20096;-93
2023/08/12 04:02:47;;;;;;;13.93;11.18;;;18.20;94.20;;;;;;6111231;23;20528;-94
2023/08/12 04:05:28;;;;;;;12.48;10.68;;;19.10;95.00;;;;;;6096168;23;20512;-93
2023/08/12 04:08:33;;;;;;;;;;;;;;;;;;;;;
2023/08/12 04:11:30;;;;;;;12.95;11.10;;;19.10;96.10;;;;;;6132955;23;20017;-93
2023/08/12 04:13:59;;;;;;;13.25;10.27;;;19.10;96.30;;;;;;6107357;23;20018;-93
2023/08/12 04:16:38;;;;;;;15.32;10.95;;;19.10;95.90;;;;;;6088355;23;20018;-93
2023/08/12 04:19:10;;;;;;;17.23;11.60;;;18.90;96.10;;;;;;6087436;23;20459;-94
2023/08/12 04:21:51;;;;;;;;;;;;;;;;;;;;;
2023/08/12 04:24:22;;;;;;;15.60;11.70;;;19.20;96.40;;;;;;6111292;23;20025;-93
2023/08/12 04:26:58;;;;;;;15.68;10.75;;;19.20;96.80;;;;;;6083054;23;20020;-93
2023/08/12 04:29:36;;;;;;;17.20;11.38;;;19.20;96.70;;;;;;6063900;23;20053;-94
2023/08/12 04:32:08;;;;;;;17.20;12.25;;;19.30;96.60;;;;;;6086043;23;20083;-94
2023/08/12 04:34:37;;;;;;;12.93;11.52;;;19.20;96.70;;;;;;6106560;23;20019;-93
2023/08/12 04:37:29;;;;;;;15.38;10.35;;;18.70;96.70;;;;;;6083448;23;20072;-94
2023/08/12 04:40:18;;;;;;;14.38;11.02;;;19.30;96.90;;;;;;6067523;23;20036;-94
2023/08/12 04:43:21;;;;;;;;;;;;;;;;;;;;;
2023/08/12 04:45:59;;;;;;;;;;;;;;;;;;;;;
2023/08/12 04:48:35;;;;;;;14.68;12.02;;;19.30;97.00;;;;;;6112500;23;20390;-94
2023/08/12 04:51:14;;;;;;;14.90;10.40;;;19.40;97.10;;;;;;6088337;23;20045;-93
2023/08/12 04:54:01;;;;;;;14.70;10.85;;;19.40;97.00;;;;;;6086482;23;20022;-93
2023/08/12 04:56:32;;;;;;;;;;;19.30;97.70;;;;;;6108980;23;20014;-93
2023/08/12 04:59:15;;;;;;;14.23;11.43;;;18.80;98.50;;;;;;6086761;23;19923;-93
2023/08/12 05:01:49;;;;;;;13.60;11.10;;;19.30;97.30;;;;;;6064842;23;20025;-94
2023/08/12 05:04:38;;;;;;;16.05;12.15;;;19.30;97.40;;;;;;6085803;23;20021;-94
2023/08/12 05:07:15;;;;;;;;;;;19.30;97.80;;;;;;6073245;23;20092;-93
2023/08/12 05:12:50;;;;;;;16.50;12.95;;;19.40;98.00;;;;;;6133664;23;20026;-93
2023/08/12 05:15:23;;;;;;;14.93;11.52;;;19.30;98.30;;;;;;6109526;23;20417;-93
2023/08/12 05:18:00;;;;;;;;;;;;;;;;;;;;;
2023/08/12 05:20:34;;;;;;;15.48;11.38;;;20.50;99.20;;;;;;6134319;23;20018;-93
2023/08/12 05:23:24;;;;;;;15.23;11.63;;;19.40;99.50;;;;;;6110183;23;20013;-94
2023/08/12 05:26:15;;;;;;;;;;;;;;;;;;;;;
2023/08/12 05:28:54;;;;;;;15.82;12.25;;;18.40;99.90;;;;;;6112468;23;20040;-94
2023/08/12 05:31:46;;;;;;;16.73;12.93;;;19.30;99.90;;;;;;6064219;23;20337;-94
2023/08/12 05:34:31;;;;;;;17.60;13.35;;;19.30;99.90;;;;;;6096637;23;20018;-94
2023/08/12 05:37:09;;;;;;;17.60;12.25;;;19.40;99.90;;;;;;6110313;23;20022;-93
2023/08/12 05:40:08;;;;;;;;;;;;;;;;;;;;;
2023/08/12 05:42:43;;;;;;;19.67;14.55;;;19.40;99.90;;;;;;6135780;23;20017;-93
2023/08/12 05:45:35;;;;;;;20.50;15.25;;;19.40;99.90;;;;;;6110474;23;20017;-93
2023/08/12 05:48:06;;;;;;;22.63;14.90;;;19.10;99.90;;;;;;6111737;23;20017;-93
2023/08/12 05:50:58;;;;;;;18.85;15.27;;;19.60;99.90;;;;;;6063321;23;20052;-93
2023/08/12 05:53:53;;;;;;;17.70;14.07;;;19.60;99.90;;;;;;6110838;23;20048;-93
2023/08/12 05:56:26;;;;;;;18.40;15.95;;;19.60;99.90;;;;;;6111308;23;20017;-93
2023/08/12 05:59:10;;;;;;;17.85;14.80;;;19.60;99.90;;;;;;6089804;23;20017;-94
2023/08/12 06:01:42;;;;;;;19.00;15.25;;;19.70;99.90;;;;;;6066994;23;20098;-94
2023/08/12 06:04:25;;;;;;;18.67;15.23;;;19.70;99.90;;;;;;6108583;23;20018;-93
2023/08/12 06:07:18;;;;;;;18.30;15.88;;;19.80;99.90;;;;;;6087138;23;20100;-94
2023/08/12 06:09:49;;;;;;;22.25;16.63;;;19.80;99.90;;;;;;6089881;23;20473;-94
2023/08/12 06:12:31;;;;;;;20.42;17.48;;;19.90;99.90;;;;;;6090130;23;20018;-92
2023/08/12 06:15:06;;;;;;;19.50;16.33;;;20.00;99.90;;;;;;6087025;23;20014;-93
2023/08/12 06:17:32;;;;;;;21.52;16.65;;;20.10;99.90;;;;;;6108935;23;20056;-94
2023/08/12 06:20:08;;;;;;;22.88;16.45;;;20.20;99.90;;;;;;6108585;23;20461;-93
2023/08/12 06:22:52;;;;;;;20.92;16.60;;;20.20;99.90;;;;;;6114956;23;20021;-92
2023/08/12 06:25:25;;;;;;;22.60;16.50;;;21.00;99.90;;;;;;6085513;23;20024;-94
2023/08/12 06:28:08;;;;;;;18.48;15.40;;;20.10;99.90;;;;;;6085771;23;20097;-94
2023/08/12 06:30:55;;;;;;;;;;;;;;;;;;;;;
2023/08/12 06:37:37;;;;;;;20.27;15.65;;;20.10;99.90;;;;;;6098261;23;20089;-93
2023/08/12 07:02:46;;;;;;;24.15;17.48;;;20.10;99.90;;;;;;6043842;23;20015;-93
2023/08/12 07:10:00;;;;;;;27.17;20.10;;;20.20;99.90;;;;;;5958859;23;20019;-93
2023/08/12 08:08:50;;;;;;;22.80;19.83;;;20.30;99.90;;;;;;5930474;24;20114;-94
2023/08/12 08:15:03;;;;;;;24.63;20.95;;;20.30;99.90;;;;;;6069970;23;20048;-92
2023/08/12 08:17:34;;;;;;;25.00;19.42;;;20.30;99.90;;;;;;6099000;23;20018;-93
2023/08/12 08:20:05;;;;;;;24.48;19.73;;;20.30;99.90;;;;;;6102906;23;20017;-92
2023/08/12 08:33:13;;;;;;;21.65;17.25;;;20.30;99.90;;;;;;6078316;23;20024;-91
2023/08/12 08:35:58;;;;;;;22.20;19.77;;;20.30;99.90;;;;;;6056159;23;20018;-92
2023/08/12 08:38:24;;;;;;;21.70;18.10;;;20.00;99.90;;;;;;6106105;23;20025;-93
2023/08/12 08:41:24;;;;;;;19.90;16.92;;;20.30;99.90;;;;;;6102682;23;20521;-92
2023/08/12 08:47:44;;;;;;;21.88;18.52;;;20.30;99.90;;;;;;6129821;23;20053;-92
2023/08/12 08:55:09;;;;;;;22.27;19.67;;;20.40;99.90;;;;;;6038352;23;20321;-92
2023/08/12 09:29:34;;;;;;;16.67;14.95;;;19.90;99.90;;;;;;6040191;23;20078;-94
2023/08/12 09:36:02;;;;;;;13.93;12.25;;;19.80;99.90;;;;;;5960684;23;20019;-95
2023/08/12 09:38:43;;;;;;;;;;;;;;;;;;;;;
2023/08/12 09:41:22;;;;;;;14.18;12.20;;;19.70;99.90;;;;;;6042672;23;20022;-94
2023/08/12 09:44:04;;;;;;;;;;;;;;;;;;;;;
2023/08/12 09:47:14;;;;;;;;;;;;;;;;;;;;;
2023/08/12 09:50:31;;;;;;;10.27;7.97;;;19.60;99.90;;;;;;6069718;23;20368;-94
2023/08/12 09:56:40;;;;;;;8.75;7.85;;;19.60;99.90;;;;;;6128744;23;20009;-96
2023/08/12 09:59:20;;;;;;;9.95;8.80;;;18.70;99.90;;;;;;6107580;23;20022;-95
2023/08/12 10:02:04;;;;;;;8.70;7.05;;;19.60;99.90;;;;;;6105471;23;20064;-95
2023/08/12 10:04:54;;;;;;;;;;;;;;;;;;;;;
2023/08/12 10:07:26;;;;;;;7.47;6.70;;;19.60;99.90;;;;;;6130820;23;20021;-95
2023/08/12 10:10:22;;;;;;;9.77;6.82;;;19.40;99.90;;;;;;6082669;23;20461;-95
2023/08/12 10:13:12;;;;;;;;;;;;;;;;;;;;;
2023/08/12 10:15:47;;;;;;;9.43;6.75;;;19.40;99.90;;;;;;6112654;23;20066;-95
2023/08/12 10:18:29;;;;;;;7.45;6.43;;;19.60;99.90;;;;;;6105968;23;20089;-95
2023/08/12 10:24:53;;;;;;;;;;;;;;;;;;;;;
2023/08/12 10:28:07;;;;;;;7.72;6.07;;;19.50;99.90;;;;;;6101804;23;20186;-95
2023/08/12 10:30:45;;;;;;;6.75;6.13;;;19.50;99.90;;;;;;6064658;23;20028;-94
2023/08/12 10:33:49;;;;;;;6.80;5.45;;;19.10;99.90;;;;;;6112809;23;20021;-94
2023/08/12 10:36:38;;;;;;;;;;;;;;;;;;;;;
2023/08/12 10:39:16;;;;;;;;;;;19.60;99.90;;;;;;6135247;23;20014;-95
2023/08/12 10:42:01;;;;;;;7.43;4.85;;;19.60;99.90;;;;;;6111455;23;19923;-94
2023/08/12 10:44:51;;;;;;;8.48;5.07;;;19.70;99.90;;;;;;6108761;23;20044;-95
2023/08/12 10:51:51;;;;;;;;;;;;;;;;;;;;;
2023/08/12 10:54:31;;;;;;;;;;;;;;;;;;;;;
2023/08/12 10:57:14;;;;;;;6.07;5.25;;;19.70;99.90;;;;;;6134943;23;20322;-96
2023/08/12 11:00:07;;;;;;;;;;;;;;;;;;;;;
2023/08/12 11:10:16;;;;;;;4.30;3.90;;;19.90;99.90;;;;;;6157725;23;20012;-94
2023/08/12 11:13:31;;;;;;;;;;;;;;;;;;;;;
2023/08/12 11:16:19;;;;;;;3.00;2.55;;;19.80;99.90;;;;;;6131578;23;20045;-94
2023/08/12 11:18:56;;;;;;;2.58;2.30;;;19.80;99.90;;;;;;6107950;23;20022;-94
2023/08/12 11:22:38;;;;;;;3.38;1.83;;;19.70;99.90;;;;;;6068823;23;20022;-95
2023/08/12 11:25:53;;;;;;;;;;;;;;;;;;;;;
2023/08/12 11:43:20;;;;;;;2.25;0.90;;;19.40;99.90;;;;;;5961790;23;20024;-96
2023/08/12 11:58:05;;;;;;;1.30;1.20;;;19.50;99.90;;;;;;5828674;24;20465;-94
2023/08/12 12:04:17;;;;;;;1.95;1.77;;;19.50;99.90;;;;;;5819642;24;20030;-93
2023/08/12 12:06:51;;;;;;;2.47;2.00;;;20.40;99.90;;;;;;5869495;24;20021;-94
2023/08/12 12:09:18;;;;;;;2.72;2.28;;;19.70;99.90;;;;;;5929942;23;20023;-95
2023/08/12 12:11:56;;;;;;;;;;;;;;;;;;;;;
2023/08/12 12:14:50;;;;;;;;;;;;;;;;;;;;;
2023/08/12 12:17:19;;;;;;;3.25;2.33;;;19.20;99.90;;;;;;5994990;23;20347;-94
2023/08/12 12:20:14;;;;;;;3.08;2.30;;;19.80;99.90;;;;;;6015658;23;20026;-95
2023/08/12 12:22:45;;;;;;;4.40;1.60;;;20.00;99.90;;;;;;6021494;23;20050;-94
2023/08/12 12:25:13;;;;;;;3.33;2.03;;;19.60;99.90;;;;;;6085978;23;20100;-94
2023/08/12 12:27:55;;;;;;;3.42;1.75;;;19.40;99.90;;;;;;6077738;23;20100;-96
2023/08/12 12:30:23;;;;;;;3.05;1.85;;;18.50;99.90;;;;;;6101761;23;20049;-95
2023/08/12 12:32:56;;;;;;;4.10;1.80;;;19.20;99.90;;;;;;6077542;23;20053;-94
2023/08/12 12:35:34;;;;;;;3.33;1.80;;;19.30;99.90;;;;;;6056423;23;20018;-94
2023/08/12 12:38:12;;;;;;;3.88;2.30;;;19.40;99.90;;;;;;6100959;23;20072;-95
2023/08/12 12:40:40;;;;;;;3.70;2.10;;;19.40;99.90;;;;;;6054907;23;20378;-94
2023/08/12 12:43:24;;;;;;;2.88;2.00;;;19.50;99.90;;;;;;6100812;23;20088;-93
2023/08/12 12:46:00;;;;;;;3.10;2.20;;;19.70;99.90;;;;;;6102862;23;20471;-95
2023/08/12 12:48:51;;;;;;;3.47;1.90;;;19.80;99.90;;;;;;6056170;23;20026;-94
2023/08/12 12:51:20;;;;;;;2.55;1.83;;;19.70;99.90;;;;;;6058270;23;20018;-94
2023/08/12 12:53:59;;;;;;;;;;;;;;;;;;;;;
2023/08/12 12:56:40;;;;;;;3.08;2.15;;;19.80;99.90;;;;;;6104021;23;20576;-95
2023/08/12 12:59:09;;;;;;;4.40;2.22;;;18.90;99.90;;;;;;6101706;23;20017;-95
2023/08/12 13:04:43;;;;;;;5.22;2.40;;;19.70;99.90;;;;;;6127219;23;20018;-96
2023/08/12 13:07:53;;;;;;;4.38;2.10;;;19.00;99.90;;;;;;6075580;23;20517;-96
2023/08/12 13:14:07;;;;;;;5.65;2.15;;;20.20;99.90;;;;;;6089097;23;20025;-96
2023/08/12 13:16:53;;;;;;;6.05;3.75;;;20.30;99.90;;;;;;6079692;23;20017;-96
2023/08/12 13:29:32;;;;;;;;;;;;;;;;;;;;;
2023/08/12 13:32:21;;;;;;;;;;;;;;;;;;;;;
2023/08/12 13:35:24;;;;;;;8.93;2.47;;;20.90;93.70;;;;;;6105902;23;20141;-96
2023/08/12 13:38:49;;;;;;;;;;;;;;;;;;;;;
2023/08/12 13:41:49;;;;;;;;;;;;;;;;;;;;;
2023/08/12 13:44:51;;;;;;;;;;;;;;;;;;;;;
2023/08/12 13:47:51;;;;;;;4.25;1.90;;;20.60;61.60;;;;;;6100412;23;20018;-96
2023/08/12 13:50:31;;;;;;;6.05;2.55;;;22.30;20.60;;;;;;6086173;23;20041;-96
2023/08/12 13:53:29;;;;;;;;;;;;;;;;;;;;;
2023/08/12 13:56:18;;;;;;;4.05;2.40;;;20.60;65.80;;;;;;6108835;23;20069;-96
2023/08/12 13:59:00;;;;;;;6.40;2.78;;;21.50;84.50;;;;;;6107524;23;20018;-96
2023/08/12 14:01:43;;;;;;;4.90;2.42;;;21.30;75.20;;;;;;6082918;23;20053;-96
2023/08/12 14:04:19;;;;;;;6.07;2.08;;;21.10;78.30;;;;;;6108563;23;20097;-96
2023/08/12 14:10:50;;;;;;;;;;;;;;;;;;;;;
2023/08/12 14:14:11;;;;;;;;;;;;;;;;;;;;;
2023/08/12 14:17:14;;;;;;;;;;;;;;;;;;;;;
2023/08/12 14:20:20;;;;;;;7.00;2.65;;;22.10;7.70;;;;;;6134124;23;20032;-96
2023/08/12 14:23:09;;;;;;;6.45;2.40;;;22.10;38.00;;;;;;6111104;23;20370;-96
2023/08/12 14:26:18;;;;;;;5.20;2.28;;;21.30;34.40;;;;;;6064424;23;20022;-96
2023/08/12 14:29:03;;;;;;;;;;;;;;;;;;;;;
2023/08/12 14:32:04;;;;;;;;;;;;;;;;;;;;;
2023/08/12 14:35:29;;;;;;;;;;;;;;;;;;;;;
2023/08/12 14:38:34;;;;;;;;;;;;;;;;;;;;;
2023/08/12 14:41:22;;;;;;;;;;;;;;;;;;;;;
2023/08/12 14:44:20;;;;;;;4.18;2.40;;;22.90;9.00;;;;;;6077367;23;20015;-96
2023/08/12 14:46:57;;;;;;;6.57;3.15;;;22.50;23.10;;;;;;6059574;23;20101;-96
2023/08/12 14:49:30;;;;;;;5.68;2.55;;;22.40;19.90;;;;;;6075554;23;20076;-96
2023/08/12 14:52:32;;;;;;;;;;;;;;;;;;;;;
2023/08/12 14:55:19;;;;;;;;;;;;;;;;;;;;;
2023/08/12 14:58:20;;;;;;;4.95;2.38;;;22.50;1.00;;;;;;6102126;23;20018;-96
2023/08/12 15:01:21;;;;;;;;;;;;;;;;;;;;;
2023/08/12 15:04:11;;;;;;;;;;;;;;;;;;;;;
2023/08/12 15:06:54;;;;;;;6.47;2.95;;;21.60;1.00;;;;;;6081587;23;20018;-96
2023/08/12 15:09:59;;;;;;;;;;;;;;;;;;;;;
2023/08/12 15:13:40;;;;;;;5.35;2.78;;;22.40;1.00;;;;;;6096802;23;20054;-96
2023/08/12 15:16:50;;;;;;;4.60;2.40;;;22.60;1.00;;;;;;6055026;23;20026;-96
2023/08/12 15:19:26;;;;;;;3.75;2.47;;;22.60;1.00;;;;;;6066278;23;20018;-96
2023/08/12 15:22:15;;;;;;;6.57;2.70;;;22.60;1.00;;;;;;6054062;23;20023;-96
2023/08/12 15:24:53;;;;;;;5.65;2.45;;;22.40;1.00;;;;;;6049633;23;20014;-96
2023/08/12 15:27:26;;;;;;;6.57;2.85;;;22.30;1.00;;;;;;6111267;23;20021;-96
2023/08/12 15:30:00;;;;;;;10.43;3.10;;;22.40;1.00;;;;;;6067868;23;20054;-96
2023/08/12 15:33:18;;;;;;;6.95;2.72;;;22.80;1.00;;;;;;6111237;23;20049;-96
2023/08/12 15:35:56;;;;;;;;;;;;;;;;;;;;;
2023/08/12 15:38:55;;;;;;;;;;;;;;;;;;;;;
2023/08/12 15:41:47;;;;;;;6.93;2.90;;;22.50;99.90;;;;;;6136684;23;20017;-96
2023/08/12 15:44:36;;;;;;;5.50;2.20;;;22.40;1.00;;;;;;6089406;23;20048;-96
2023/08/12 15:47:07;;;;;;;7.60;2.72;;;23.00;99.90;;;;;;6088840;23;20029;-96
2023/08/12 15:49:50;;;;;;;7.05;2.40;;;22.40;99.90;;;;;;6063421;23;20018;-96
2023/08/12 15:53:02;;;;;;;;;;;;;;;;;;;;;
2023/08/12 15:55:46;;;;;;;8.88;4.18;;;22.40;99.90;;;;;;6116556;23;20019;-96
2023/08/12 15:58:24;;;;;;;5.88;3.25;;;22.40;99.90;;;;;;6090019;23;20021;-96
2023/08/12 16:00:56;;;;;;;8.45;3.42;;;22.20;1.00;;;;;;6111046;23;20014;-96
2023/08/12 16:10:45;;;;;;;9.45;3.72;;;21.40;1.00;;;;;;6101588;23;20096;-96
2023/08/12 16:13:42;;;;;;;9.93;2.90;;;22.30;99.90;;;;;;6097134;23;20022;-96
2023/08/12 16:16:27;;;;;;;9.30;3.97;;;21.40;99.90;;;;;;6086822;23;20021;-96
2023/08/12 16:19:45;;;;;;;8.50;3.30;;;21.20;99.90;;;;;;6097001;23;20287;-96
2023/08/12 16:22:27;;;;;;;6.05;2.80;;;22.20;99.90;;;;;;6116536;23;20018;-96
2023/08/12 16:25:14;;;;;;;7.63;3.10;;;21.90;99.90;;;;;;6083518;23;20025;-95
2023/08/12 16:27:45;;;;;;;8.40;2.55;;;22.50;99.90;;;;;;6097414;23;20028;-96
2023/08/12 16:31:02;;;;;;;;;;;;;;;;;;;;;
2023/08/12 16:34:10;;;;;;;9.27;2.83;;;21.50;1.00;;;;;;6146491;23;20023;-96
2023/08/12 16:41:09;;;;;;;;;;;;;;;;;;;;;
2023/08/12 16:57:43;;;;;;;;;;;;;;;;;;;;;
2023/08/12 17:06:22;;;;;;;;;;;;;;;;;;;;;
2023/08/12 17:12:04;;;;;;;;;;;;;;;;;;;;;
2023/08/12 17:52:57;;;;;;;6.82;2.65;;;20.60;86.90;;;;;;6150595;23;20108;-96
2023/08/12 21:39:03;;;;;;;8.32;3.33;;;16.80;16.30;;;;;;6145198;23;20837;31
2023/08/12 22:06:38;;;;;;;;;;;;;;;;;;;;;
2023/08/12 22:13:50;;;;;;;9.02;3.60;;;17.00;10.20;;;;;;6204902;23;20021;-96
2023/08/12 22:24:11;;;;;;;;;;;;;;;;;;;;;
2023/08/12 22:34:01;;;;;;;;;;;;;;;;;;;;;
2023/08/12 22:36:44;;;;;;;6.97;3.20;;;15.60;6.80;;;;;;6080762;23;20006;-96
2023/08/12 22:47:19;;;;;;;;;;;;;;;;;;;;;
2023/08/12 22:50:13;;;;;;;;;;;;;;;;;;;;;
2023/08/12 22:56:47;;;;;;;;;;;;;;;;;;;;;
2023/08/12 23:00:20;;;;;;;;;;;;;;;;;;;;;
2023/08/12 23:11:28;;;;;;;9.68;3.47;;;15.50;1.00;;;;;;6024913;23;20027;-96
2023/08/12 23:14:52;;;;;;;;;;;;;;;;;;;;;
2023/08/12 23:24:22;;;;;;;7.57;3.40;;;16.20;2.10;;;;;;6144563;23;20018;-96
2023/08/12 23:31:07;;;;;;;9.07;2.63;;;16.20;1.00;;;;;;6100851;23;20025;-96
2023/08/12 23:34:15;;;;;;;;;;;;;;;;;;;;;
2023/08/12 23:37:20;;;;;;;;;;;;;;;;;;;;;
2023/08/12 23:40:30;;;;;;;;;;;;;;;;;;;;;
2023/08/12 23:43:49;;;;;;;;;;;;;;;;;;;;;
2023/08/12 23:47:10;;;;;;;10.60;3.17;;;15.40;3.10;;;;;;6117774;23;20022;-96
2023/08/12 23:53:14;;;;;;;8.05;4.20;;;16.40;7.20;;;;;;6095602;23;20022;-96
2023/08/12 23:56:20;;;;;;;7.53;3.30;;;16.00;7.30;;;;;;6090751;23;20018;-93
